Time;durP1;ratioP1;P1;durP2;ratioP2;P2;SDS_P1;SDS_P2;PMS_P1;PMS_P2;Temp;Humidity;BMP_temperature;BMP_pressure;BME280_temperature;BME280_humidity;BME280_pressure;Samples;Min_cycle;Max_cycle;Signal;HPM_P1;HPM_P2
2021/04/13 00:01:26;;;;;;;6.47;5.88;;;;;;;;;;5053351;28;21248;-43
2021/04/13 00:03:54;;;;;;;6.20;5.80;;;;;;;;;;5051907;28;20206;-42
2021/04/13 00:06:39;;;;;;;8.53;5.20;;;;;;;;;;5051331;28;20605;-43
2021/04/13 00:09:08;;;;;;;5.80;5.30;;;;;;;;;;5052359;28;20652;-43
2021/04/13 00:11:33;;;;;;;6.07;5.47;;;;;;;;;;5058859;28;20595;-43
2021/04/13 00:14:00;;;;;;;5.57;5.17;;;;;;;;;;5056415;28;21216;-43
2021/04/13 00:16:28;;;;;;;5.43;5.03;;;;;;;;;;5069056;28;20397;-43
2021/04/13 00:18:54;;;;;;;6.20;5.60;;;;;;;;;;5057563;28;20668;-43
2021/04/13 00:21:22;;;;;;;6.20;5.70;;;;;;;;;;5052161;28;20694;-45
2021/04/13 00:23:47;;;;;;;6.10;5.60;;;;;;;;;;5065971;28;20629;-43
2021/04/13 00:26:18;;;;;;;5.67;5.20;;;;;;;;;;5056544;28;20633;-43
2021/04/13 00:28:45;;;;;;;7.00;6.40;;;;;;;;;;5060580;28;20713;-42
2021/04/13 00:31:17;;;;;;;6.10;5.50;;;;;;;;;;5059693;28;20604;-42
2021/04/13 00:33:42;;;;;;;6.67;6.07;;;;;;;;;;5055515;28;20638;-43
2021/04/13 00:36:10;;;;;;;7.00;6.30;;;;;;;;;;5066009;28;20755;-42
2021/04/13 00:38:40;;;;;;;6.73;6.20;;;;;;;;;;5054336;28;20265;-42
2021/04/13 00:41:11;;;;;;;6.40;5.77;;;;;;;;;;5051116;28;20899;-43
2021/04/13 00:43:41;;;;;;;6.13;5.63;;;;;;;;;;5062438;28;20609;-43
2021/04/13 00:46:06;;;;;;;6.70;6.10;;;;;;;;;;5058660;28;20601;-43
2021/04/13 00:48:33;;;;;;;6.87;5.87;;;;;;;;;;5050698;28;20686;-42
2021/04/13 00:51:06;;;;;;;8.10;6.40;;;;;;;;;;5052863;28;20188;-42
2021/04/13 00:53:32;;;;;;;5.80;5.30;;;;;;;;;;5058059;28;20941;-42
2021/04/13 00:56:00;;;;;;;6.90;6.30;;;;;;;;;;5051837;28;21650;-42
2021/04/13 00:58:31;;;;;;;7.83;6.00;;;;;;;;;;5062815;28;20614;-43
2021/04/13 01:00:59;;;;;;;6.53;6.03;;;;;;;;;;5054951;28;20709;-42
2021/04/13 01:03:26;;;;;;;6.30;5.90;;;;;;;;;;5057606;28;20598;-42
2021/04/13 01:05:57;;;;;;;6.40;5.80;;;;;;;;;;5064394;28;20684;-42
2021/04/13 01:08:31;;;;;;;5.77;5.27;;;;;;;;;;5050491;28;20654;-41
2021/04/13 01:10:59;;;;;;;5.80;5.33;;;;;;;;;;5055327;28;20613;-42
2021/04/13 01:13:36;;;;;;;7.53;5.70;;;;;;;;;;5050622;28;20645;-43
2021/04/13 01:16:01;;;;;;;6.57;5.97;;;;;;;;;;5052467;28;20594;-43
2021/04/13 01:18:38;;;;;;;6.83;6.23;;;;;;;;;;5056750;28;20593;-43
2021/04/13 01:21:03;;;;;;;6.13;5.63;;;;;;;;;;5050269;28;20241;-42
2021/04/13 01:23:37;;;;;;;7.40;6.80;;;;;;;;;;5050901;28;20606;-43
2021/04/13 01:26:04;;;;;;;6.27;5.67;;;;;;;;;;5057744;28;20515;-43
2021/04/13 01:28:30;;;;;;;6.63;6.03;;;;;;;;;;5063063;28;20960;-43
2021/04/13 01:30:57;;;;;;;6.27;5.77;;;;;;;;;;5052579;28;20632;-43
2021/04/13 01:33:37;;;;;;;6.37;5.87;;;;;;;;;;5052742;28;20663;-43
2021/04/13 01:36:13;;;;;;;6.53;5.80;;;;;;;;;;5049405;28;21012;-43
2021/04/13 01:38:42;;;;;;;6.50;5.90;;;;;;;;;;5061289;28;20735;-43
2021/04/13 01:43:37;;;;;;;6.20;5.60;;;;;;;;;;5063516;28;20627;-43
2021/04/13 01:46:03;;;;;;;8.60;7.00;;;;;;;;;;5052727;28;20602;-42
2021/04/13 01:48:28;;;;;;;8.10;6.40;;;;;;;;;;5052037;28;20606;-42
2021/04/13 01:50:58;;;;;;;8.50;6.30;;;;;;;;;;5050557;28;20187;-43
2021/04/13 01:53:25;;;;;;;6.53;5.97;;;;;;;;;;5048980;28;20187;-42
2021/04/13 01:55:58;;;;;;;6.63;6.03;;;;;;;;;;5063010;28;20608;-42
2021/04/13 01:58:41;;;;;;;7.30;6.70;;;;;;;;;;5051027;28;20729;-43
2021/04/13 02:01:27;;;;;;;9.47;6.33;;;;;;;;;;5055983;28;21140;-43
2021/04/13 02:03:56;;;;;;;7.33;6.67;;;;;;;;;;5049185;28;20932;-43
2021/04/13 02:06:28;;;;;;;7.00;6.50;;;;;;;;;;5049122;28;20599;-43
2021/04/13 02:08:59;;;;;;;7.40;6.80;;;;;;;;;;5055420;28;20637;-43
2021/04/13 02:11:33;;;;;;;7.20;6.60;;;;;;;;;;5049616;28;20602;-43
2021/04/13 02:14:04;;;;;;;7.57;6.47;;;;;;;;;;5050071;28;20704;-43
2021/04/13 02:16:31;;;;;;;7.20;6.50;;;;;;;;;;5049223;28;21216;-43
2021/04/13 02:18:57;;;;;;;9.30;7.07;;;;;;;;;;5054519;28;20610;-43
2021/04/13 02:21:30;;;;;;;7.00;6.30;;;;;;;;;;5052024;28;20622;-43
2021/04/13 02:24:03;;;;;;;8.90;6.13;;;;;;;;;;5059571;28;20182;-43
2021/04/13 02:26:29;;;;;;;7.10;6.40;;;;;;;;;;5055391;28;20612;-42
2021/04/13 02:28:54;;;;;;;7.43;6.83;;;;;;;;;;5049923;28;21218;-42
2021/04/13 02:31:36;;;;;;;7.07;6.37;;;;;;;;;;5063470;28;20605;-43
2021/04/13 02:34:04;;;;;;;7.40;6.73;;;;;;;;;;5053713;28;20181;-43
2021/04/13 02:36:30;;;;;;;7.93;7.13;;;;;;;;;;5057420;28;20597;-43
2021/04/13 02:38:56;;;;;;;7.97;7.13;;;;;;;;;;5055781;28;20628;-43
2021/04/13 02:41:28;;;;;;;8.00;7.20;;;;;;;;;;5060365;28;20660;-42
2021/04/13 02:43:54;;;;;;;7.10;6.60;;;;;;;;;;5051068;28;20603;-43
2021/04/13 02:46:22;;;;;;;7.30;6.70;;;;;;;;;;5048452;28;20656;-43
2021/04/13 02:49:14;;;;;;;7.53;7.03;;;;;;;;;;5048931;28;20650;-42
2021/04/13 02:51:44;;;;;;;7.80;7.10;;;;;;;;;;5055285;28;21168;-43
2021/04/13 02:54:15;;;;;;;7.13;6.60;;;;;;;;;;5060907;28;21152;-43
2021/04/13 02:56:41;;;;;;;8.00;6.97;;;;;;;;;;5051218;28;20603;-42
2021/04/13 02:59:14;;;;;;;8.67;7.77;;;;;;;;;;5061406;28;20697;-42
2021/04/13 03:01:48;;;;;;;7.20;6.60;;;;;;;;;;5049894;28;20614;-42
2021/04/13 03:04:14;;;;;;;7.47;6.77;;;;;;;;;;5049222;28;21023;-41
2021/04/13 03:06:43;;;;;;;8.10;7.27;;;;;;;;;;5050575;28;20646;-43
2021/04/13 03:09:08;;;;;;;9.43;6.77;;;;;;;;;;5061414;28;20233;-42
2021/04/13 03:11:35;;;;;;;8.33;7.47;;;;;;;;;;5057619;28;21234;-42
2021/04/13 03:14:01;;;;;;;8.63;7.43;;;;;;;;;;5048088;28;20203;-42
2021/04/13 03:16:34;;;;;;;8.03;7.30;;;;;;;;;;5050209;28;20679;-42
2021/04/13 03:19:00;;;;;;;10.30;8.10;;;;;;;;;;5052940;28;20294;-44
2021/04/13 03:21:28;;;;;;;8.23;6.60;;;;;;;;;;5056114;28;20689;-42
2021/04/13 03:23:56;;;;;;;8.87;7.60;;;;;;;;;;5054014;28;20606;-43
2021/04/13 03:26:24;;;;;;;8.00;7.30;;;;;;;;;;5052229;28;20652;-42
2021/04/13 03:28:53;;;;;;;9.27;8.10;;;;;;;;;;5053743;28;20756;-42
2021/04/13 03:31:19;;;;;;;8.30;7.40;;;;;;;;;;5052588;28;21167;-42
2021/04/13 03:33:45;;;;;;;8.40;7.50;;;;;;;;;;5062909;28;21155;-42
2021/04/13 03:36:14;;;;;;;8.63;7.87;;;;;;;;;;5055054;28;20606;-42
2021/04/13 03:38:39;;;;;;;7.13;6.53;;;;;;;;;;5066743;28;20187;-42
2021/04/13 03:41:10;;;;;;;9.13;8.33;;;;;;;;;;5053271;28;20622;-42
2021/04/13 03:43:35;;;;;;;7.60;6.90;;;;;;;;;;5052033;28;20692;-42
2021/04/13 03:46:03;;;;;;;9.40;8.60;;;;;;;;;;5069068;28;20600;-42
2021/04/13 03:48:29;;;;;;;8.50;7.60;;;;;;;;;;5049453;28;20191;-43
2021/04/13 03:50:59;;;;;;;9.83;8.37;;;;;;;;;;5055050;28;20612;-42
2021/04/13 03:53:29;;;;;;;9.20;8.27;;;;;;;;;;5048207;28;20616;-43
2021/04/13 03:56:13;;;;;;;8.93;8.07;;;;;;;;;;5055814;28;21059;-41
2021/04/13 03:58:43;;;;;;;9.00;8.10;;;;;;;;;;5060741;28;20605;-42
2021/04/13 04:01:11;;;;;;;9.80;8.90;;;;;;;;;;5057997;28;20597;-42
2021/04/13 04:03:40;;;;;;;9.50;8.60;;;;;;;;;;5047016;28;20975;-42
2021/04/13 04:06:05;;;;;;;11.90;9.37;;;;;;;;;;5048174;28;20595;-43
2021/04/13 04:08:35;;;;;;;9.03;8.13;;;;;;;;;;5051916;28;20657;-42
2021/04/13 04:11:00;;;;;;;9.87;8.57;;;;;;;;;;5056534;28;20227;-42
2021/04/13 04:13:29;;;;;;;9.90;9.00;;;;;;;;;;5059493;28;21010;-41
2021/04/13 04:16:29;;;;;;;8.93;8.13;;;;;;;;;;5052754;28;20234;-40
2021/04/13 04:18:55;;;;;;;9.70;8.80;;;;;;;;;;5077233;28;20601;-41
2021/04/13 04:21:31;;;;;;;11.67;9.03;;;;;;;;;;5070759;28;21175;-42
2021/04/13 04:24:00;;;;;;;9.40;8.60;;;;;;;;;;5059370;28;20175;-42
2021/04/13 04:26:27;;;;;;;10.23;9.17;;;;;;;;;;5053879;28;21192;-42
2021/04/13 04:28:54;;;;;;;9.80;8.90;;;;;;;;;;5054560;28;20636;-43
2021/04/13 04:31:43;;;;;;;10.93;9.03;;;;;;;;;;5060793;28;20613;-42
2021/04/13 04:34:13;;;;;;;10.10;9.10;;;;;;;;;;5054861;28;20609;-42
2021/04/13 04:36:43;;;;;;;10.27;9.37;;;;;;;;;;5047703;28;20626;-42
2021/04/13 04:39:20;;;;;;;10.20;9.20;;;;;;;;;;5054058;28;20605;-42
2021/04/13 04:41:45;;;;;;;10.03;9.10;;;;;;;;;;5049513;28;20697;-42
2021/04/13 04:44:27;;;;;;;9.93;9.02;;;;;;;;;;5055332;28;20664;-43
2021/04/13 04:46:58;;;;;;;10.17;8.80;;;;;;;;;;5051348;28;20219;-42
2021/04/13 04:49:24;;;;;;;10.47;9.20;;;;;;;;;;5058360;28;20654;-44
2021/04/13 04:51:50;;;;;;;10.23;9.40;;;;;;;;;;5047955;28;20617;-41
2021/04/13 04:54:16;;;;;;;10.47;9.57;;;;;;;;;;5061850;28;20704;-41
2021/04/13 04:56:41;;;;;;;11.40;10.30;;;;;;;;;;5051019;28;20582;-41
2021/04/13 04:59:06;;;;;;;10.70;9.70;;;;;;;;;;5058871;28;20270;-42
2021/04/13 05:01:31;;;;;;;10.50;9.50;;;;;;;;;;5053170;28;20275;-41
2021/04/13 05:03:57;;;;;;;11.23;10.30;;;;;;;;;;5054118;28;20180;-42
2021/04/13 05:06:24;;;;;;;9.70;8.80;;;;;;;;;;5054336;28;20611;-42
2021/04/13 05:08:49;;;;;;;10.07;8.87;;;;;;;;;;5049224;28;20211;-42
2021/04/13 05:11:14;;;;;;;10.13;9.27;;;;;;;;;;5048792;28;20610;-42
2021/04/13 05:13:39;;;;;;;9.70;8.90;;;;;;;;;;5053437;28;20213;-43
2021/04/13 05:16:04;;;;;;;10.75;9.70;;;;;;;;;;5056921;28;20566;-42
2021/04/13 05:18:30;;;;;;;10.30;9.40;;;;;;;;;;5059857;28;20255;-43
2021/04/13 05:20:55;;;;;;;10.48;9.18;;;;;;;;;;5047950;28;20206;-42
2021/04/13 05:23:20;;;;;;;11.27;10.00;;;;;;;;;;5054561;28;20238;-44
2021/04/13 05:25:45;;;;;;;10.80;9.90;;;;;;;;;;5061357;28;20549;-44
2021/04/13 05:28:11;;;;;;;11.23;10.23;;;;;;;;;;5057150;28;20182;-42
2021/04/13 05:30:36;;;;;;;10.53;9.63;;;;;;;;;;5052381;28;20214;-43
2021/04/13 05:33:02;;;;;;;11.03;9.93;;;;;;;;;;5051949;28;20184;-42
2021/04/13 05:35:27;;;;;;;11.40;10.30;;;;;;;;;;5048668;28;20620;-42
2021/04/13 05:37:52;;;;;;;11.93;10.77;;;;;;;;;;5054792;28;20187;-44
2021/04/13 05:40:26;;;;;;;11.37;10.30;;;;;;;;;;5063191;28;20200;-42
2021/04/13 05:42:54;;;;;;;11.73;10.50;;;;;;;;;;5058644;28;20171;-43
2021/04/13 05:45:19;;;;;;;11.83;10.60;;;;;;;;;;5048235;28;20581;-45
2021/04/13 05:47:44;;;;;;;12.13;10.93;;;;;;;;;;5048781;28;20581;-42
2021/04/13 05:50:18;;;;;;;11.57;10.47;;;;;;;;;;5063680;28;20200;-43
2021/04/13 05:52:43;;;;;;;10.63;9.63;;;;;;;;;;5051440;28;20195;-42
2021/04/13 05:55:09;;;;;;;12.57;9.77;;;;;;;;;;5064775;28;21179;-43
2021/04/13 05:57:34;;;;;;;12.47;9.60;;;;;;;;;;5068283;28;20542;-42
2021/04/13 06:00:01;;;;;;;12.50;11.30;;;;;;;;;;5051598;28;20219;-42
2021/04/13 06:02:33;;;;;;;12.40;10.83;;;;;;;;;;5054324;28;20709;-42
2021/04/13 06:04:59;;;;;;;11.07;9.97;;;;;;;;;;5051036;28;20599;-43
2021/04/13 06:07:24;;;;;;;11.00;9.90;;;;;;;;;;5049293;28;20657;-42
2021/04/13 06:09:49;;;;;;;11.33;10.23;;;;;;;;;;5045015;28;20287;-42
2021/04/13 06:12:15;;;;;;;12.37;10.60;;;;;;;;;;5052237;28;20172;-42
2021/04/13 06:14:41;;;;;;;10.70;9.67;;;;;;;;;;5048330;28;20229;-42
2021/04/13 06:17:07;;;;;;;11.80;10.50;;;;;;;;;;5054342;28;20226;-42
2021/04/13 06:19:32;;;;;;;11.43;10.27;;;;;;;;;;5065124;28;20599;-42
2021/04/13 06:21:57;;;;;;;10.93;9.97;;;;;;;;;;5062562;28;20581;-43
2021/04/13 06:24:22;;;;;;;12.13;10.93;;;;;;;;;;5056449;28;20606;-42
2021/04/13 06:26:48;;;;;;;11.73;10.50;;;;;;;;;;5053131;28;20179;-41
2021/04/13 06:29:13;;;;;;;14.13;10.45;;;;;;;;;;5055104;28;20206;-42
2021/04/13 06:31:38;;;;;;;11.47;10.47;;;;;;;;;;5051250;28;20178;-42
2021/04/13 06:34:03;;;;;;;11.20;10.17;;;;;;;;;;5048159;28;20599;-42
2021/04/13 06:36:29;;;;;;;11.27;10.17;;;;;;;;;;5053853;28;20200;-41
2021/04/13 06:38:56;;;;;;;11.17;10.10;;;;;;;;;;5056407;28;20268;-41
2021/04/13 06:41:24;;;;;;;11.73;10.60;;;;;;;;;;5061188;28;20190;-41
2021/04/13 06:43:58;;;;;;;11.77;10.63;;;;;;;;;;5055830;28;20611;-41
2021/04/13 06:46:40;;;;;;;11.90;10.70;;;;;;;;;;5062571;28;20614;-41
2021/04/13 06:49:15;;;;;;;12.20;11.00;;;;;;;;;;5052131;28;21322;-43
2021/04/13 06:52:05;;;;;;;14.90;12.27;;;;;;;;;;5059963;28;20610;-42
2021/04/13 06:54:37;;;;;;;11.10;10.20;;;;;;;;;;5048527;28;21165;-43
2021/04/13 06:57:16;;;;;;;11.13;10.03;;;;;;;;;;5050476;28;20586;-42
2021/04/13 07:00:03;;;;;;;12.37;11.03;;;;;;;;;;5073991;28;20613;-43
2021/04/13 07:02:37;;;;;;;14.30;9.97;;;;;;;;;;5064380;28;20601;-43
2021/04/13 07:05:23;;;;;;;11.10;10.00;;;;;;;;;;5052909;28;20594;-42
2021/04/13 07:07:59;;;;;;;11.63;10.53;;;;;;;;;;5052400;28;20648;-42
2021/04/13 07:10:25;;;;;;;11.30;10.20;;;;;;;;;;5053506;28;20638;-44
2021/04/13 07:13:13;;;;;;;11.80;10.80;;;;;;;;;;5059609;28;20586;-43
2021/04/13 07:15:42;;;;;;;10.90;9.90;;;;;;;;;;5053329;28;20179;-43
2021/04/13 07:18:15;;;;;;;10.00;9.07;;;;;;;;;;5056360;28;20951;-42
2021/04/13 07:20:45;;;;;;;12.13;10.97;;;;;;;;;;5054562;28;20701;-43
2021/04/13 07:23:13;;;;;;;12.80;11.50;;;;;;;;;;5057122;28;20655;-43
2021/04/13 07:25:44;;;;;;;10.53;9.53;;;;;;;;;;5062192;28;20635;-42
2021/04/13 07:28:12;;;;;;;12.37;11.10;;;;;;;;;;5051823;28;21189;-42
2021/04/13 07:30:37;;;;;;;11.77;10.57;;;;;;;;;;5060358;28;20732;-42
2021/04/13 07:33:04;;;;;;;12.43;11.13;;;;;;;;;;5054425;28;20762;-42
2021/04/13 07:35:31;;;;;;;10.80;9.80;;;;;;;;;;5056566;28;20183;-42
2021/04/13 07:37:56;;;;;;;11.03;10.03;;;;;;;;;;5055427;28;20712;-42
2021/04/13 07:40:25;;;;;;;11.30;10.20;;;;;;;;;;5055005;28;20775;-42
2021/04/13 07:43:09;;;;;;;12.40;11.10;;;;;;;;;;5055933;28;20176;-43
2021/04/13 07:45:37;;;;;;;12.07;10.30;;;;;;;;;;5053260;28;20652;-46
2021/04/13 07:48:08;;;;;;;11.40;10.40;;;;;;;;;;5066081;28;20581;-42
2021/04/13 07:50:52;;;;;;;11.40;10.20;;;;;;;;;;5070190;28;21145;-43
2021/04/13 07:53:35;;;;;;;12.60;10.60;;;;;;;;;;5063763;28;20615;-42
2021/04/13 07:56:06;;;;;;;11.73;10.53;;;;;;;;;;5061632;28;20633;-42
2021/04/13 07:58:48;;;;;;;11.23;9.77;;;;;;;;;;5069981;28;20580;-43
2021/04/13 08:01:14;;;;;;;10.97;9.87;;;;;;;;;;5054352;28;20583;-42
2021/04/13 08:03:40;;;;;;;10.70;9.70;;;;;;;;;;5058856;28;21208;-43
2021/04/13 08:06:25;;;;;;;10.30;9.30;;;;;;;;;;5053679;28;20175;-43
2021/04/13 08:09:04;;;;;;;11.13;10.20;;;;;;;;;;5048744;28;20217;-43
2021/04/13 08:11:29;;;;;;;11.30;10.30;;;;;;;;;;5050390;28;21012;-43
2021/04/13 08:13:55;;;;;;;10.25;9.35;;;;;;;;;;5060899;28;20644;-43
2021/04/13 08:16:31;;;;;;;10.83;9.73;;;;;;;;;;5052830;28;20179;-42
2021/04/13 08:19:31;;;;;;;11.30;10.23;;;;;;;;;;5050815;28;20171;-43
2021/04/13 08:22:05;;;;;;;10.63;9.60;;;;;;;;;;5053433;28;20734;-43
2021/04/13 08:24:32;;;;;;;10.60;9.60;;;;;;;;;;5058321;28;20623;-43
2021/04/13 08:27:10;;;;;;;10.30;9.50;;;;;;;;;;5053048;28;20701;-43
2021/04/13 08:29:40;;;;;;;11.90;10.80;;;;;;;;;;5057218;28;21220;-43
2021/04/13 08:35:11;;;;;;;10.27;9.10;;;;;;;;;;5054436;28;20600;-43
2021/04/13 08:37:36;;;;;;;9.20;8.40;;;;;;;;;;5059728;28;20655;-43
2021/04/13 08:40:06;;;;;;;9.10;8.18;;;;;;;;;;5051933;28;20695;-42
2021/04/13 08:42:44;;;;;;;8.17;7.57;;;;;;;;;;5049433;28;20179;-42
2021/04/13 08:45:15;;;;;;;8.77;7.90;;;;;;;;;;5053752;28;20601;-42
2021/04/13 08:47:44;;;;;;;7.50;6.80;;;;;;;;;;5061413;28;20635;-47
2021/04/13 08:50:24;;;;;;;8.07;7.37;;;;;;;;;;5049222;28;21001;-43
2021/04/13 08:52:54;;;;;;;7.60;7.00;;;;;;;;;;5051879;28;21184;-43
2021/04/13 08:55:22;;;;;;;9.77;8.63;;;;;;;;;;5056012;28;20604;-42
2021/04/13 08:58:00;;;;;;;7.80;7.10;;;;;;;;;;5052683;28;21306;-43
2021/04/13 09:00:32;;;;;;;7.97;7.33;;;;;;;;;;5062656;28;20605;-43
2021/04/13 09:02:59;;;;;;;8.23;7.53;;;;;;;;;;5049934;28;20978;-43
2021/04/13 09:05:26;;;;;;;7.60;7.00;;;;;;;;;;5049044;28;20593;-43
2021/04/13 09:07:53;;;;;;;7.33;6.73;;;;;;;;;;5061968;28;21411;-42
2021/04/13 09:10:28;;;;;;;8.27;7.47;;;;;;;;;;5056311;28;20643;-42
2021/04/13 09:13:02;;;;;;;8.47;7.53;;;;;;;;;;5052611;28;20599;-43
2021/04/13 09:15:28;;;;;;;8.00;7.40;;;;;;;;;;5049445;28;20600;-42
2021/04/13 09:18:20;;;;;;;8.13;7.43;;;;;;;;;;5062690;28;20616;-42
2021/04/13 09:20:47;;;;;;;8.10;7.40;;;;;;;;;;5063913;28;20603;-42
2021/04/13 09:23:27;;;;;;;7.57;6.90;;;;;;;;;;5051718;28;20623;-42
2021/04/13 09:26:06;;;;;;;7.00;6.40;;;;;;;;;;5050205;28;20652;-42
2021/04/13 09:28:52;;;;;;;6.97;6.47;;;;;;;;;;5047910;28;20618;-42
2021/04/13 09:31:20;;;;;;;7.93;6.77;;;;;;;;;;5058983;28;20609;-43
2021/04/13 09:33:45;;;;;;;7.13;6.63;;;;;;;;;;5061183;28;20675;-42
2021/04/13 09:36:33;;;;;;;6.43;5.83;;;;;;;;;;5047719;28;20721;-42
2021/04/13 09:39:15;;;;;;;6.70;6.07;;;;;;;;;;5055290;28;20190;-42
2021/04/13 09:41:59;;;;;;;6.73;6.23;;;;;;;;;;5057083;28;21291;-42
2021/04/13 09:44:43;;;;;;;6.80;6.17;;;;;;;;;;5057828;28;20612;-42
2021/04/13 09:47:08;;;;;;;7.27;6.67;;;;;;;;;;5058760;28;20631;-42
2021/04/13 09:49:33;;;;;;;7.68;7.07;;;;;;;;;;5066675;28;20641;-43
2021/04/13 09:52:10;;;;;;;6.75;6.22;;;;;;;;;;5059761;28;20367;-42
2021/04/13 09:54:42;;;;;;;7.30;6.60;;;;;;;;;;5051568;28;20599;-43
2021/04/13 09:57:07;;;;;;;5.90;5.30;;;;;;;;;;5066655;28;20590;-42
2021/04/13 09:59:47;;;;;;;7.63;6.18;;;;;;;;;;5058075;28;20625;-42
2021/04/13 10:02:18;;;;;;;6.17;5.63;;;;;;;;;;5055612;28;20522;-42
2021/04/13 10:04:44;;;;;;;5.87;5.40;;;;;;;;;;5059347;28;20603;-42
2021/04/13 10:07:29;;;;;;;6.47;5.80;;;;;;;;;;5066394;28;20654;-42
2021/04/13 10:09:56;;;;;;;6.10;5.53;;;;;;;;;;5053108;28;20203;-42
2021/04/13 10:12:39;;;;;;;5.77;5.37;;;;;;;;;;5050735;28;20960;-43
2021/04/13 10:15:20;;;;;;;4.60;4.00;;;;;;;;;;5065515;28;20686;-43
2021/04/13 10:18:03;;;;;;;5.10;4.70;;;;;;;;;;5050701;28;20599;-43
2021/04/13 10:20:32;;;;;;;5.10;4.77;;;;;;;;;;5047474;28;20681;-43
2021/04/13 10:23:16;;;;;;;5.50;5.00;;;;;;;;;;5060343;28;20639;-43
2021/04/13 10:25:59;;;;;;;5.67;4.07;;;;;;;;;;5069510;28;20603;-41
2021/04/13 10:28:35;;;;;;;4.50;4.20;;;;;;;;;;5047764;28;20594;-44
2021/04/13 10:31:18;;;;;;;4.20;3.90;;;;;;;;;;5062666;28;20641;-42
2021/04/13 10:33:46;;;;;;;5.70;4.00;;;;;;;;;;5063848;28;20664;-42
2021/04/13 10:36:20;;;;;;;5.13;4.30;;;;;;;;;;5050611;28;20673;-42
2021/04/13 10:38:49;;;;;;;5.27;4.77;;;;;;;;;;5049719;28;20608;-41
2021/04/13 10:41:33;;;;;;;4.97;4.53;;;;;;;;;;5062559;28;20635;-41
2021/04/13 10:44:01;;;;;;;3.93;3.63;;;;;;;;;;5052486;28;20590;-42
2021/04/13 10:46:29;;;;;;;4.70;4.30;;;;;;;;;;5062917;28;20643;-42
2021/04/13 10:49:04;;;;;;;4.80;4.40;;;;;;;;;;5061152;28;20611;-42
2021/04/13 10:51:55;;;;;;;5.00;4.60;;;;;;;;;;5047532;28;20604;-42
2021/04/13 10:54:23;;;;;;;5.37;4.70;;;;;;;;;;5050485;28;20756;-42
2021/04/13 10:57:06;;;;;;;5.07;4.57;;;;;;;;;;5063258;28;20605;-42
2021/04/13 10:59:39;;;;;;;5.10;4.70;;;;;;;;;;5054893;28;20638;-45
2021/04/13 11:02:13;;;;;;;5.20;4.70;;;;;;;;;;5057040;28;20601;-41
2021/04/13 11:04:58;;;;;;;5.80;5.30;;;;;;;;;;5065890;28;20970;-41
2021/04/13 11:07:35;;;;;;;4.87;4.47;;;;;;;;;;5056143;28;20661;-42
2021/04/13 11:10:27;;;;;;;4.53;4.13;;;;;;;;;;5056128;28;20652;-42
2021/04/13 11:13:12;;;;;;;4.83;4.43;;;;;;;;;;5046503;28;20655;-42
2021/04/13 11:15:46;;;;;;;4.70;3.50;;;;;;;;;;5048942;28;20604;-42
2021/04/13 11:18:30;;;;;;;3.93;3.63;;;;;;;;;;5046253;28;20687;-42
2021/04/13 11:21:14;;;;;;;4.10;3.80;;;;;;;;;;5057057;28;20614;-42
2021/04/13 11:23:58;;;;;;;4.80;4.30;;;;;;;;;;5047262;28;20693;-42
2021/04/13 11:26:38;;;;;;;4.43;4.03;;;;;;;;;;5049449;28;21018;-42
2021/04/13 11:29:22;;;;;;;3.80;3.50;;;;;;;;;;5046167;28;20630;-42
2021/04/13 11:31:51;;;;;;;4.20;3.77;;;;;;;;;;5052382;28;20607;-43
2021/04/13 11:34:37;;;;;;;4.23;3.70;;;;;;;;;;5059621;28;20608;-43
2021/04/13 11:37:28;;;;;;;4.13;3.70;;;;;;;;;;5043436;28;20652;-42
2021/04/13 11:40:05;;;;;;;3.43;3.13;;;;;;;;;;5052460;28;20643;-41
2021/04/13 11:42:33;;;;;;;3.37;2.90;;;;;;;;;;5053314;28;21044;-42
2021/04/13 11:44:58;;;;;;;5.20;4.70;;;;;;;;;;5060627;28;20598;-42
2021/04/13 11:47:32;;;;;;;5.68;4.25;;;;;;;;;;5064181;28;20614;-41
2021/04/13 11:50:03;;;;;;;3.53;3.23;;;;;;;;;;5054745;28;20213;-43
2021/04/13 11:52:37;;;;;;;4.20;3.50;;;;;;;;;;5054448;28;20620;-42
2021/04/13 11:55:03;;;;;;;4.27;3.53;;;;;;;;;;5057195;28;20618;-43
2021/04/13 11:57:33;;;;;;;4.10;3.43;;;;;;;;;;5059552;28;20596;-43
2021/04/13 12:00:11;;;;;;;3.37;3.07;;;;;;;;;;5059091;28;20273;-42
2021/04/13 12:02:43;;;;;;;4.37;3.83;;;;;;;;;;5060974;28;21484;-42
2021/04/13 12:05:23;;;;;;;3.37;3.07;;;;;;;;;;5049398;28;21157;-42
2021/04/13 12:07:49;;;;;;;3.43;3.07;;;;;;;;;;5049107;28;20663;-42
2021/04/13 12:10:26;;;;;;;4.10;3.77;;;;;;;;;;5046684;28;20647;-42
2021/04/13 12:12:51;;;;;;;4.13;3.70;;;;;;;;;;5054284;28;20262;-43
2021/04/13 12:15:16;;;;;;;4.07;3.67;;;;;;;;;;5048540;28;20595;-43
2021/04/13 12:17:43;;;;;;;3.60;3.30;;;;;;;;;;5053709;28;20231;-43
2021/04/13 12:20:22;;;;;;;3.83;3.00;;;;;;;;;;5047886;28;20208;-44
2021/04/13 12:22:47;;;;;;;3.40;3.10;;;;;;;;;;5057348;28;20612;-43
2021/04/13 12:25:31;;;;;;;4.40;3.13;;;;;;;;;;5058554;28;20607;-43
2021/04/13 12:28:01;;;;;;;3.40;3.20;;;;;;;;;;5060249;28;20173;-42
2021/04/13 12:30:29;;;;;;;2.80;2.60;;;;;;;;;;5057329;28;20772;-42
2021/04/13 12:32:54;;;;;;;2.57;2.40;;;;;;;;;;5055448;28;20620;-43
2021/04/13 12:35:48;;;;;;;2.50;2.40;;;;;;;;;;5062349;28;21395;-43
2021/04/13 12:38:32;;;;;;;3.90;2.13;;;;;;;;;;5056748;28;20491;-43
2021/04/13 12:41:16;;;;;;;2.43;2.07;;;;;;;;;;5054021;28;20632;-43
2021/04/13 12:43:49;;;;;;;3.10;2.30;;;;;;;;;;5050222;28;20705;-43
2021/04/13 12:46:18;;;;;;;3.10;2.37;;;;;;;;;;5054222;28;20594;-45
2021/04/13 12:48:45;;;;;;;3.00;2.70;;;;;;;;;;5066708;28;20975;-43
2021/04/13 12:51:13;;;;;;;2.87;2.20;;;;;;;;;;5051079;28;20631;-43
2021/04/13 12:53:38;;;;;;;3.60;2.30;;;;;;;;;;5051224;28;20677;-42
2021/04/13 12:56:06;;;;;;;2.60;1.90;;;;;;;;;;5049620;28;21001;-42
2021/04/13 12:58:32;;;;;;;2.37;2.10;;;;;;;;;;5048061;28;20213;-43
2021/04/13 13:00:58;;;;;;;2.93;2.67;;;;;;;;;;5049728;28;20593;-43
2021/04/13 13:03:30;;;;;;;4.20;2.50;;;;;;;;;;5049528;28;20603;-42
2021/04/13 13:05:56;;;;;;;3.50;2.40;;;;;;;;;;5049461;28;20178;-42
2021/04/13 13:08:23;;;;;;;2.90;2.70;;;;;;;;;;5052362;28;20769;-42
2021/04/13 13:10:50;;;;;;;3.30;2.40;;;;;;;;;;5054200;28;20202;-42
2021/04/13 13:13:18;;;;;;;2.80;2.60;;;;;;;;;;5047725;28;20601;-41
2021/04/13 13:15:44;;;;;;;5.90;2.87;;;;;;;;;;5049528;28;20663;-43
2021/04/13 13:18:18;;;;;;;2.43;2.23;;;;;;;;;;5066398;28;20601;-42
2021/04/13 13:20:44;;;;;;;3.57;2.30;;;;;;;;;;5065105;28;20649;-42
2021/04/13 13:23:13;;;;;;;2.70;2.50;;;;;;;;;;5056290;28;20636;-42
2021/04/13 13:25:40;;;;;;;5.43;2.43;;;;;;;;;;5053311;28;20171;-42
2021/04/13 13:28:11;;;;;;;2.10;2.00;;;;;;;;;;5065800;28;20638;-42
2021/04/13 13:30:36;;;;;;;1.87;1.60;;;;;;;;;;5051196;28;20645;-42
2021/04/13 13:33:01;;;;;;;2.07;1.60;;;;;;;;;;5058800;28;20663;-42
2021/04/13 13:35:26;;;;;;;1.60;1.50;;;;;;;;;;5053512;28;20190;-43
2021/04/13 13:37:54;;;;;;;4.13;1.93;;;;;;;;;;5051756;28;20178;-43
2021/04/13 13:40:22;;;;;;;3.70;1.90;;;;;;;;;;5055968;28;20274;-43
2021/04/13 13:42:48;;;;;;;2.70;1.70;;;;;;;;;;5044255;28;20948;-43
2021/04/13 13:45:25;;;;;;;2.40;2.03;;;;;;;;;;5048438;28;20672;-42
2021/04/13 13:47:50;;;;;;;1.83;1.73;;;;;;;;;;5048178;28;20620;-43
2021/04/13 13:50:15;;;;;;;2.00;1.87;;;;;;;;;;5053631;28;20683;-43
2021/04/13 13:52:42;;;;;;;2.88;1.88;;;;;;;;;;5049320;28;20212;-45
2021/04/13 13:55:16;;;;;;;2.17;1.97;;;;;;;;;;5053239;28;20235;-45
2021/04/13 13:57:42;;;;;;;1.90;1.80;;;;;;;;;;5049106;28;20598;-44
2021/04/13 14:00:28;;;;;;;2.33;2.13;;;;;;;;;;5054507;28;20622;-43
2021/04/13 14:03:04;;;;;;;3.43;2.57;;;;;;;;;;5050173;28;20640;-44
2021/04/13 14:05:35;;;;;;;3.00;2.13;;;;;;;;;;5051461;28;20822;-42
2021/04/13 14:08:08;;;;;;;3.73;2.50;;;;;;;;;;5051228;28;20733;-44
2021/04/13 14:10:33;;;;;;;3.30;2.50;;;;;;;;;;5062662;28;20646;-43
2021/04/13 14:13:06;;;;;;;3.00;2.70;;;;;;;;;;5050968;28;20616;-43
2021/04/13 14:15:33;;;;;;;2.40;2.20;;;;;;;;;;5050005;28;20199;-42
2021/04/13 14:17:59;;;;;;;2.53;2.33;;;;;;;;;;5049754;28;20655;-42
2021/04/13 14:20:24;;;;;;;3.57;2.70;;;;;;;;;;5055122;28;20616;-43
2021/04/13 14:22:52;;;;;;;3.80;2.80;;;;;;;;;;5053237;28;21711;-43
2021/04/13 14:25:22;;;;;;;3.87;2.40;;;;;;;;;;5056776;28;20189;-43
2021/04/13 14:28:04;;;;;;;3.03;2.83;;;;;;;;;;5051970;28;20653;-43
2021/04/13 14:30:30;;;;;;;3.17;2.87;;;;;;;;;;5059846;28;20736;-42
2021/04/13 14:32:55;;;;;;;3.30;3.00;;;;;;;;;;5070157;28;20695;-43
2021/04/13 14:35:21;;;;;;;3.63;3.35;;;;;;;;;;5056258;28;20539;-43
2021/04/13 14:37:46;;;;;;;3.83;3.53;;;;;;;;;;5049686;28;20182;-43
2021/04/13 14:40:15;;;;;;;3.60;3.20;;;;;;;;;;5053699;28;20267;-42
2021/04/13 14:42:40;;;;;;;4.53;3.90;;;;;;;;;;5052241;28;20660;-43
2021/04/13 14:45:07;;;;;;;4.10;3.10;;;;;;;;;;5050541;28;20612;-42
2021/04/13 14:47:33;;;;;;;4.30;3.23;;;;;;;;;;5061582;28;20255;-43
2021/04/13 14:49:59;;;;;;;3.80;3.50;;;;;;;;;;5052811;28;20739;-42
2021/04/13 14:52:25;;;;;;;4.40;4.00;;;;;;;;;;5062897;28;20706;-43
2021/04/13 14:54:50;;;;;;;5.50;3.73;;;;;;;;;;5060034;28;20181;-42
2021/04/13 14:57:16;;;;;;;4.00;3.70;;;;;;;;;;5064370;28;20179;-42
2021/04/13 14:59:41;;;;;;;4.43;3.30;;;;;;;;;;5058006;28;20260;-44
2021/04/13 15:02:07;;;;;;;4.63;4.23;;;;;;;;;;5049315;28;20659;-43
2021/04/13 15:04:32;;;;;;;4.13;3.73;;;;;;;;;;5057859;28;20609;-42
2021/04/13 15:06:58;;;;;;;4.93;3.80;;;;;;;;;;5043559;28;20245;-42